createdAt,value
2019-02-23T00:01:47.419Z,75.40
2019-02-23T00:04:18.217Z,75.41
2019-02-23T00:06:49.092Z,74.81
2019-02-23T00:09:20.003Z,75.18
2019-02-23T00:11:50.900Z,75.50
2019-02-23T00:14:22.539Z,76.00
2019-02-23T00:16:53.450Z,76.01
2019-02-23T00:19:25.304Z,76.12
2019-02-23T00:21:57.085Z,76.30
2019-02-23T00:24:27.876Z,76.25
2019-02-23T00:26:58.919Z,76.38
2019-02-23T00:29:29.866Z,76.46
2019-02-23T00:32:00.772Z,76.35
2019-02-23T00:34:31.629Z,76.28
2019-02-23T00:37:02.599Z,76.37
2019-02-23T00:39:33.407Z,77.01
2019-02-23T00:42:04.384Z,76.42
2019-02-23T00:44:35.189Z,75.74
2019-02-23T00:47:06.075Z,75.24
2019-02-23T00:49:36.866Z,74.98
2019-02-23T00:52:08.508Z,75.02
2019-02-23T00:54:39.455Z,74.87
2019-02-23T00:57:10.351Z,74.78
2019-02-23T00:59:41.239Z,74.68
2019-02-23T01:02:12.245Z,74.68
2019-02-23T01:04:44.016Z,74.22
2019-02-23T01:07:15.028Z,74.30
2019-02-23T01:09:45.889Z,74.83
2019-02-23T01:12:16.971Z,75.01
2019-02-23T01:14:47.870Z,75.17
2019-02-23T01:17:18.981Z,75.53
2019-02-23T01:19:49.850Z,75.30
2019-02-23T01:22:20.843Z,75.64
2019-02-23T01:24:51.837Z,75.84
2019-02-23T01:27:22.839Z,75.82
2019-02-23T01:29:53.623Z,75.95
2019-02-23T01:32:24.612Z,76.45
2019-02-23T01:34:55.482Z,76.36
2019-02-23T01:37:26.483Z,76.55
2019-02-23T01:39:57.377Z,76.39
2019-02-23T01:42:28.456Z,77.19
2019-02-23T01:44:59.345Z,77.79
2019-02-23T01:47:30.594Z,77.86
2019-02-23T01:50:01.551Z,77.64
2019-02-23T01:52:32.534Z,77.06
2019-02-23T01:55:03.403Z,76.83
2019-02-23T01:57:34.385Z,76.61
2019-02-23T02:00:06.315Z,76.23
2019-02-23T02:02:37.910Z,75.95
2019-02-23T02:05:08.819Z,75.59
2019-02-23T02:07:41.526Z,75.53
2019-02-23T02:10:12.626Z,75.38
2019-02-23T02:12:43.617Z,75.23
2019-02-23T02:15:15.333Z,74.62
2019-02-23T02:17:46.340Z,74.53
2019-02-23T02:20:17.295Z,74.60
2019-02-23T02:22:48.201Z,74.72
2019-02-23T02:25:19.126Z,74.69
2019-02-23T02:27:50.116Z,74.73
2019-02-23T02:30:21.172Z,74.78
2019-02-23T02:32:52.136Z,74.91
2019-02-23T02:35:22.931Z,75.21
2019-02-23T02:37:53.872Z,75.67
2019-02-23T02:40:24.708Z,75.90
2019-02-23T02:42:55.976Z,76.07
2019-02-23T02:45:26.886Z,76.50
2019-02-23T02:47:57.775Z,76.60
2019-02-23T02:50:28.770Z,76.88
2019-02-23T02:53:00.034Z,76.92
2019-02-23T02:55:30.971Z,76.99
2019-02-23T02:58:01.997Z,77.04
2019-02-23T03:00:32.946Z,76.96
2019-02-23T03:03:04.042Z,76.82
2019-02-23T03:05:34.907Z,77.21
2019-02-23T03:08:06.279Z,77.19
2019-02-23T03:10:37.111Z,77.41
2019-02-23T03:13:07.998Z,77.79
2019-02-23T03:15:38.790Z,78.41
2019-02-23T03:18:09.779Z,78.36
2019-02-23T03:20:40.650Z,78.56
2019-02-23T03:23:11.531Z,78.09
2019-02-23T03:25:42.313Z,78.46
2019-02-23T03:28:13.307Z,78.72
2019-02-23T03:30:44.211Z,78.92
2019-02-23T03:33:15.088Z,78.82
2019-02-23T03:35:45.978Z,79.08
2019-02-23T03:38:16.912Z,78.98
2019-02-23T03:40:47.954Z,79.38
2019-02-23T03:43:18.896Z,79.37
2019-02-23T03:45:49.638Z,79.38
2019-02-23T03:48:20.634Z,79.24
2019-02-23T03:50:51.416Z,78.88
2019-02-23T03:53:22.670Z,78.91
2019-02-23T03:55:53.579Z,78.66
2019-02-23T03:58:24.591Z,78.96
2019-02-23T04:00:55.371Z,79.01
2019-02-23T04:03:26.364Z,78.98
2019-02-23T04:05:57.249Z,78.83
2019-02-23T04:08:28.146Z,79.09
2019-02-23T04:10:58.927Z,79.15
2019-02-23T04:13:30.100Z,79.06
2019-02-23T04:16:00.898Z,78.97
2019-02-23T04:18:31.882Z,78.65
2019-02-23T04:21:02.989Z,79.29
2019-02-23T04:23:34.371Z,79.03
2019-02-23T04:26:05.157Z,79.07
2019-02-23T04:28:36.047Z,79.15
2019-02-23T04:31:06.822Z,78.82
2019-02-23T04:33:37.721Z,79.10
2019-02-23T04:36:08.606Z,79.66
2019-02-23T04:38:39.592Z,80.71
2019-02-23T04:41:10.607Z,80.96
2019-02-23T04:43:43.997Z,80.63
2019-02-23T04:46:13.998Z,80.70
2019-02-23T04:48:44.936Z,80.61
2019-02-23T04:51:15.773Z,80.35
2019-02-23T04:53:46.729Z,80.24
2019-02-23T04:56:17.677Z,79.99
2019-02-23T04:58:48.552Z,80.20
2019-02-23T05:01:19.328Z,80.10
2019-02-23T05:03:50.283Z,80.12
2019-02-23T05:06:21.113Z,79.49
2019-02-23T05:08:52.106Z,79.65
2019-02-23T05:11:22.987Z,80.38
2019-02-23T05:13:53.980Z,80.05
2019-02-23T05:16:24.754Z,81.16
2019-02-23T05:18:55.622Z,81.90
2019-02-23T05:21:27.051Z,82.33
2019-02-23T05:23:58.219Z,82.60
2019-02-23T05:26:29.015Z,82.36
2019-02-23T05:29:00.000Z,82.20
2019-02-23T05:31:31.196Z,81.87
2019-02-23T05:34:02.227Z,82.64
2019-02-23T05:36:33.079Z,81.66
2019-02-23T05:39:04.751Z,81.96
2019-02-23T05:41:35.792Z,81.88
2019-02-23T05:44:06.849Z,82.29
2019-02-23T05:46:37.650Z,82.28
2019-02-23T05:49:09.669Z,83.35
2019-02-23T05:51:40.449Z,83.06
2019-02-23T05:54:11.453Z,83.47
2019-02-23T05:56:42.341Z,83.18
2019-02-23T05:59:13.237Z,83.27
2019-02-23T06:01:44.011Z,83.62
2019-02-23T06:04:15.014Z,83.66
2019-02-23T06:06:45.978Z,82.78
2019-02-23T06:09:16.881Z,82.74
2019-02-23T06:11:47.563Z,82.73
2019-02-23T06:14:18.741Z,82.70
2019-02-23T06:16:49.623Z,82.52
2019-02-23T06:19:20.615Z,83.26
2019-02-23T06:21:53.987Z,83.42
2019-02-23T06:24:24.878Z,83.50
2019-02-23T06:26:55.837Z,83.25
2019-02-23T06:29:26.723Z,83.24
2019-02-23T06:31:57.636Z,83.38
2019-02-23T06:34:28.537Z,83.42
2019-02-23T06:36:59.409Z,84.50
2019-02-23T06:39:30.448Z,83.48
2019-02-23T06:42:01.268Z,82.88
2019-02-23T06:44:32.170Z,82.74
2019-02-23T06:47:03.210Z,82.33
2019-02-23T06:49:34.214Z,81.64
2019-02-23T06:52:05.230Z,81.42
2019-02-23T06:54:36.039Z,81.17
2019-02-23T06:57:06.924Z,81.39
2019-02-23T06:59:37.999Z,81.73
2019-02-23T07:02:08.900Z,81.77
2019-02-23T07:04:39.956Z,81.91
2019-02-23T07:07:11.902Z,81.94
2019-02-23T07:09:42.892Z,82.33
2019-02-23T07:12:13.661Z,82.30
2019-02-23T07:14:44.561Z,82.28
2019-02-23T07:17:15.333Z,82.46
2019-02-23T07:19:46.234Z,82.22
2019-02-23T07:22:17.006Z,82.34
2019-02-23T07:24:47.844Z,81.98
2019-02-23T07:27:18.673Z,81.77
2019-02-23T07:29:49.572Z,81.36
2019-02-23T07:32:20.350Z,81.67
2019-02-23T07:34:51.256Z,81.97
2019-02-23T07:37:22.221Z,82.17
2019-02-23T07:39:53.252Z,82.03
2019-02-23T07:42:24.313Z,81.55
2019-02-23T07:44:55.302Z,81.11
2019-02-23T07:47:26.112Z,81.26
2019-02-23T07:49:57.995Z,80.86
2019-02-23T07:52:28.880Z,81.05
2019-02-23T07:54:59.777Z,80.86
2019-02-23T07:57:30.664Z,81.21
2019-02-23T08:00:01.540Z,80.96
2019-02-23T08:02:32.552Z,80.61
2019-02-23T08:05:03.932Z,80.57
2019-02-23T08:07:35.135Z,80.86
2019-02-23T08:10:06.534Z,80.72
2019-02-23T08:12:37.213Z,80.81
2019-02-23T08:15:08.607Z,80.91
2019-02-23T08:17:39.515Z,81.03
2019-02-23T08:20:10.514Z,80.91
2019-02-23T08:22:41.383Z,81.34
2019-02-23T08:25:12.254Z,81.20
2019-02-23T08:27:43.050Z,81.03
2019-02-23T08:30:14.149Z,80.77
2019-02-23T08:32:44.696Z,80.40
2019-02-23T08:35:15.633Z,79.67
2019-02-23T08:37:46.399Z,79.71
2019-02-23T08:40:17.378Z,79.31
2019-02-23T08:42:48.266Z,78.86
2019-02-23T08:45:19.203Z,77.01
2019-02-23T08:47:50.083Z,75.83
2019-02-23T08:50:21.102Z,75.82
2019-02-23T08:52:52.083Z,76.28
2019-02-23T08:55:22.965Z,75.28
2019-02-23T08:57:53.942Z,73.44
2019-02-23T09:00:24.958Z,73.56
2019-02-23T09:02:56.225Z,72.90
2019-02-23T09:05:27.228Z,73.31
2019-02-23T09:07:58.651Z,72.96
2019-02-23T09:10:29.515Z,72.86
2019-02-23T09:13:01.343Z,71.72
2019-02-23T09:15:32.220Z,70.99
2019-02-23T09:18:03.209Z,70.76
2019-02-23T09:20:33.988Z,70.69
2019-02-23T09:23:04.795Z,70.80
2019-02-23T09:25:35.962Z,69.37
2019-02-23T09:28:06.862Z,69.47
2019-02-23T09:30:37.787Z,69.84
2019-02-23T09:33:10.062Z,69.80
2019-02-23T09:35:40.853Z,70.13
2019-02-23T09:38:11.744Z,68.92
2019-02-23T09:40:42.731Z,68.57
2019-02-23T09:43:13.561Z,68.26
2019-02-23T09:45:44.568Z,68.35
2019-02-23T09:48:15.559Z,67.59
2019-02-23T09:50:46.552Z,66.96
2019-02-23T09:53:17.710Z,67.13
2019-02-23T09:55:49.313Z,67.35
2019-02-23T09:58:20.236Z,66.37
2019-02-23T10:00:51.241Z,66.78
2019-02-23T10:03:22.205Z,66.03
2019-02-23T10:05:53.078Z,66.26
2019-02-23T10:08:24.129Z,66.30
2019-02-23T10:10:57.506Z,65.77
2019-02-23T10:13:27.597Z,66.37
2019-02-23T10:15:58.855Z,65.60
2019-02-23T10:18:29.687Z,64.86
2019-02-23T10:21:00.950Z,65.12
2019-02-23T10:23:31.747Z,64.64
2019-02-23T10:26:02.719Z,64.15
2019-02-23T10:28:33.551Z,63.11
2019-02-23T10:31:04.842Z,63.03
2019-02-23T10:33:38.468Z,63.32
2019-02-23T10:36:08.358Z,61.99
2019-02-23T10:38:39.235Z,62.50
2019-02-23T10:41:10.426Z,62.14
2019-02-23T10:43:41.650Z,61.02
2019-02-23T10:46:12.635Z,61.05
2019-02-23T10:48:45.543Z,59.89
2019-02-23T10:51:16.527Z,60.11
2019-02-23T10:53:47.528Z,59.10
2019-02-23T10:56:18.710Z,58.18
2019-02-23T10:58:49.627Z,56.38
2019-02-23T11:01:20.687Z,56.89
2019-02-23T11:03:51.512Z,58.03
2019-02-23T11:06:22.500Z,57.57
2019-02-23T11:08:56.540Z,56.86
2019-02-23T11:11:27.799Z,54.59
2019-02-23T11:13:58.638Z,55.62
2019-02-23T11:16:30.527Z,55.44
2019-02-23T11:19:02.972Z,55.86
2019-02-23T11:21:33.850Z,57.23
2019-02-23T11:24:05.874Z,57.46
2019-02-23T11:26:36.853Z,57.25
2019-02-23T11:29:07.734Z,55.58
2019-02-23T11:31:39.293Z,55.11
2019-02-23T11:34:10.165Z,54.79
2019-02-23T11:36:41.802Z,55.07
2019-02-23T11:39:12.627Z,54.65
2019-02-23T11:41:43.510Z,55.28
2019-02-23T11:44:14.453Z,55.87
2019-02-23T11:47:00.009Z,55.06
2019-02-23T11:49:18.131Z,55.31
2019-02-23T11:51:49.403Z,55.06
2019-02-23T11:54:20.399Z,55.01
2019-02-23T11:56:51.455Z,54.91
2019-02-23T11:59:22.290Z,54.74
2019-02-23T12:01:53.372Z,54.31
2019-02-23T12:04:24.168Z,54.53
2019-02-23T12:06:55.132Z,53.72
2019-02-23T12:09:25.937Z,52.93
2019-02-23T12:11:56.821Z,52.62
2019-02-23T12:14:27.615Z,52.71
2019-02-23T12:16:58.487Z,51.03
2019-02-23T12:19:29.377Z,49.86
2019-02-23T12:22:00.276Z,49.87
2019-02-23T12:24:31.165Z,50.23
2019-02-23T12:27:02.052Z,46.82
2019-02-23T12:29:32.840Z,46.62
2019-02-23T12:32:03.815Z,46.57
2019-02-23T12:34:34.602Z,45.15
2019-02-23T12:37:05.578Z,45.73
2019-02-23T12:39:36.475Z,46.37
2019-02-23T12:42:07.263Z,44.73
2019-02-23T12:44:38.058Z,45.32
2019-02-23T12:47:08.947Z,45.98
2019-02-23T12:49:39.835Z,46.13
2019-02-23T12:52:10.896Z,46.87
2019-02-23T12:54:41.797Z,47.03
2019-02-23T12:57:12.801Z,47.05
2019-02-23T12:59:43.587Z,47.15
2019-02-23T13:02:14.564Z,46.36
2019-02-23T13:04:46.487Z,44.97
2019-02-23T13:07:17.384Z,45.89
2019-02-23T13:09:51.439Z,46.50
2019-02-23T13:12:36.152Z,46.13
2019-02-23T13:15:32.524Z,47.54
2019-02-23T13:18:23.638Z,46.80
2019-02-23T13:21:30.312Z,46.43
2019-02-23T13:24:14.003Z,46.51
2019-02-23T13:27:07.005Z,46.84
2019-02-23T13:30:08.051Z,46.69
2019-02-23T13:33:16.773Z,46.36
2019-02-23T13:36:21.664Z,46.19
2019-02-23T13:39:35.863Z,45.22
2019-02-23T13:42:49.831Z,45.26
2019-02-23T13:46:13.381Z,45.21
2019-02-23T13:49:21.903Z,45.87
2019-02-23T13:52:15.074Z,45.64
2019-02-23T13:55:37.813Z,45.13
2019-02-23T13:58:18.992Z,44.62
2019-02-23T14:01:31.465Z,44.76
2019-02-23T14:04:55.004Z,44.58
2019-02-23T14:07:50.131Z,43.63
2019-02-23T14:11:04.854Z,43.32
2019-02-23T14:14:16.572Z,43.94
2019-02-23T14:17:25.431Z,43.51
2019-02-23T14:20:19.348Z,42.77
2019-02-23T14:23:55.208Z,43.38
2019-02-23T14:27:34.551Z,43.25
2019-02-23T14:30:58.125Z,42.00
2019-02-23T14:33:51.643Z,43.73
2019-02-23T14:36:41.487Z,44.06
2019-02-23T14:39:46.351Z,44.47
2019-02-23T14:42:56.266Z,45.01
2019-02-23T14:46:06.543Z,43.85
2019-02-23T14:48:57.687Z,43.69
2019-02-23T14:52:15.564Z,42.85
2019-02-23T14:55:09.617Z,43.11
2019-02-23T14:58:27.851Z,42.40
2019-02-23T15:01:33.144Z,43.16
2019-02-23T15:04:35.067Z,41.27
2019-02-23T15:07:43.016Z,42.05
2019-02-23T15:10:36.843Z,41.35
2019-02-23T15:13:34.058Z,41.15
2019-02-23T15:16:51.577Z,41.33
2019-02-23T15:20:11.312Z,41.99
2019-02-23T15:23:18.151Z,42.43
2019-02-23T15:26:24.507Z,42.52
2019-02-23T15:29:31.935Z,42.64
2019-02-23T15:32:40.114Z,42.01
2019-02-23T15:35:56.621Z,42.74
2019-02-23T15:38:54.919Z,43.13
2019-02-23T15:41:59.206Z,43.63
2019-02-23T15:45:01.133Z,43.24
2019-02-23T15:48:21.585Z,42.76
2019-02-23T15:50:52.582Z,42.99
2019-02-23T15:53:23.401Z,42.50
2019-02-23T15:55:54.255Z,42.87
2019-02-23T15:58:25.148Z,42.25
2019-02-23T16:00:56.531Z,41.94
2019-02-23T16:03:27.414Z,41.87
2019-02-23T16:05:58.591Z,42.22
2019-02-23T16:08:29.418Z,42.68
2019-02-23T16:11:00.404Z,42.58
2019-02-23T16:13:31.192Z,41.64
2019-02-23T16:16:02.165Z,42.88
2019-02-23T16:18:32.951Z,41.64
2019-02-23T16:21:03.801Z,41.26
2019-02-23T16:23:35.809Z,40.99
2019-02-23T16:26:06.692Z,40.94
2019-02-23T16:28:37.567Z,39.89
2019-02-23T16:31:08.464Z,40.35
2019-02-23T16:33:39.747Z,40.48
2019-02-23T16:36:10.558Z,40.46
2019-02-23T16:38:41.731Z,40.80
2019-02-23T16:41:12.542Z,40.53
2019-02-23T16:43:43.313Z,40.50
2019-02-23T16:46:14.190Z,40.30
2019-02-23T16:48:45.079Z,40.22
2019-02-23T16:51:15.869Z,41.29
2019-02-23T16:53:48.923Z,39.48
2019-02-23T16:56:19.400Z,39.27
2019-02-23T16:58:50.287Z,39.53
2019-02-23T17:01:21.071Z,39.40
2019-02-23T17:03:51.968Z,41.03
2019-02-23T17:06:22.922Z,40.38
2019-02-23T17:08:54.015Z,40.61
2019-02-23T17:11:24.912Z,38.65
2019-02-23T17:13:55.950Z,39.06
2019-02-23T17:16:26.892Z,39.49
2019-02-23T17:18:58.699Z,39.01
2019-02-23T17:21:29.490Z,39.82
2019-02-23T17:24:00.416Z,39.46
2019-02-23T17:26:31.175Z,39.86
2019-02-23T17:29:02.222Z,38.72
2019-02-23T17:31:33.050Z,39.77
2019-02-23T17:34:03.969Z,38.81
2019-02-23T17:36:34.709Z,39.50
2019-02-23T17:39:06.241Z,39.81
2019-02-23T17:41:38.731Z,40.44
2019-02-23T17:44:09.933Z,39.53
2019-02-23T17:46:40.924Z,38.97
2019-02-23T17:49:11.864Z,39.62
2019-02-23T17:51:42.702Z,39.09
2019-02-23T17:54:13.701Z,41.11
2019-02-23T17:56:44.586Z,38.41
2019-02-23T17:59:15.653Z,39.49
2019-02-23T18:01:46.463Z,38.53
2019-02-23T18:04:17.434Z,39.12
2019-02-23T18:06:48.222Z,37.97
2019-02-23T18:09:19.247Z,39.24
2019-02-23T18:11:50.122Z,37.44
2019-02-23T18:14:21.504Z,37.11
2019-02-23T18:16:52.297Z,37.20
2019-02-23T18:19:23.648Z,38.59
2019-02-23T18:21:54.485Z,36.95
2019-02-23T18:24:25.664Z,36.23
2019-02-23T18:26:56.461Z,35.76
2019-02-23T18:29:27.507Z,36.34
2019-02-23T18:31:58.435Z,35.55
2019-02-23T18:34:29.442Z,34.75
2019-02-23T18:37:00.218Z,35.78
2019-02-23T18:39:32.134Z,35.63
2019-02-23T18:42:03.014Z,34.64
2019-02-23T18:44:33.993Z,36.38
2019-02-23T18:47:04.906Z,35.23
2019-02-23T18:49:35.958Z,35.37
2019-02-23T18:52:06.763Z,36.63
2019-02-23T18:54:37.804Z,35.67
2019-02-23T18:57:08.658Z,35.37
2019-02-23T18:59:39.697Z,34.88
2019-02-23T19:02:10.641Z,35.11
2019-02-23T19:04:42.724Z,34.82
2019-02-23T19:07:13.618Z,35.42
2019-02-23T19:09:44.781Z,34.63
2019-02-23T19:12:17.151Z,35.03
2019-02-23T19:14:47.898Z,35.69
2019-02-23T19:17:18.762Z,35.94
2019-02-23T19:19:49.707Z,35.97
2019-02-23T19:22:20.517Z,35.12
2019-02-23T19:24:51.327Z,36.51
2019-02-23T19:27:22.497Z,36.44
2019-02-23T19:29:53.310Z,38.40
2019-02-23T19:32:24.253Z,35.73
2019-02-23T19:34:55.074Z,35.92
2019-02-23T19:37:26.062Z,36.40
2019-02-23T19:39:56.965Z,36.77
2019-02-23T19:42:27.858Z,37.13
2019-02-23T19:44:58.743Z,36.12
2019-02-23T19:47:33.518Z,36.18
2019-02-23T19:50:14.635Z,34.35
2019-02-23T19:52:45.675Z,34.15
2019-02-23T19:55:17.442Z,33.66
2019-02-23T19:57:48.437Z,33.71
2019-02-23T20:00:20.237Z,33.89
2019-02-23T20:02:51.335Z,34.29
2019-02-23T20:05:22.221Z,34.45
2019-02-23T20:07:53.274Z,34.57
2019-02-23T20:10:24.081Z,33.26
2019-02-23T20:12:55.250Z,35.01
2019-02-23T20:15:26.161Z,34.53
2019-02-23T20:17:57.069Z,33.95
2019-02-23T20:20:27.853Z,35.58
2019-02-23T20:22:58.741Z,34.27
2019-02-23T20:25:29.631Z,35.01
2019-02-23T20:28:00.517Z,35.93
2019-02-23T20:30:31.503Z,36.52
2019-02-23T20:33:03.591Z,36.79
2019-02-23T20:35:34.599Z,40.37
2019-02-23T20:38:05.497Z,38.24
2019-02-23T20:40:36.274Z,36.55
2019-02-23T20:43:07.214Z,35.76
2019-02-23T20:45:38.162Z,35.74
2019-02-23T20:48:09.247Z,37.19
2019-02-23T20:50:40.284Z,38.48
2019-02-23T20:53:11.495Z,38.43
2019-02-23T20:55:42.446Z,37.32
2019-02-23T20:58:14.384Z,36.42
2019-02-23T21:00:45.217Z,35.57
2019-02-23T21:03:16.111Z,35.39
2019-02-23T21:05:47.006Z,35.11
2019-02-23T21:08:17.880Z,35.23
2019-02-23T21:10:48.890Z,34.91
2019-02-23T21:13:20.758Z,35.19
2019-02-23T21:15:51.678Z,35.14
2019-02-23T21:18:23.692Z,34.15
2019-02-23T21:20:54.489Z,38.08
2019-02-23T21:23:25.555Z,36.99
2019-02-23T21:25:56.606Z,37.13
2019-02-23T21:28:27.437Z,34.97
2019-02-23T21:30:58.324Z,35.17
2019-02-23T21:33:29.225Z,36.23
2019-02-23T21:36:00.115Z,36.91
2019-02-23T21:38:31.094Z,34.44
2019-02-23T21:41:03.015Z,35.92
2019-02-23T21:43:33.939Z,37.53
2019-02-23T21:46:06.198Z,35.58
2019-02-23T21:48:37.209Z,39.18
2019-02-23T21:51:07.911Z,38.92
2019-02-23T21:53:38.887Z,40.25
2019-02-23T21:56:13.308Z,41.44
2019-02-23T21:58:45.286Z,42.25
2019-02-23T22:01:20.593Z,39.20
2019-02-23T22:03:54.202Z,36.03
2019-02-23T22:06:25.098Z,35.02
2019-02-23T22:08:56.009Z,37.11
2019-02-23T22:11:26.780Z,37.34
2019-02-23T22:13:57.636Z,39.35
2019-02-23T22:16:28.605Z,39.79
2019-02-23T22:18:59.363Z,40.23
2019-02-23T22:21:30.351Z,42.63
2019-02-23T22:24:01.263Z,41.60
2019-02-23T22:26:33.362Z,42.71
2019-02-23T22:29:04.368Z,41.08
2019-02-23T22:31:35.327Z,40.80
2019-02-23T22:34:06.274Z,43.51
2019-02-23T22:36:37.180Z,46.75
2019-02-23T22:39:08.754Z,45.34
2019-02-23T22:41:40.083Z,43.35
2019-02-23T22:44:11.085Z,41.58
2019-02-23T22:46:42.058Z,45.36
2019-02-23T22:49:13.134Z,44.43
2019-02-23T22:51:43.934Z,46.13
2019-02-23T22:54:14.904Z,42.59
2019-02-23T22:56:45.803Z,43.27
2019-02-23T22:59:16.786Z,44.08
2019-02-23T23:01:47.797Z,46.08
2019-02-23T23:04:18.940Z,47.58
2019-02-23T23:06:50.758Z,46.26
2019-02-23T23:09:21.519Z,48.58
2019-02-23T23:11:52.308Z,47.49
2019-02-23T23:14:23.196Z,48.91
2019-02-23T23:16:55.683Z,45.41
2019-02-23T23:19:26.720Z,48.13
2019-02-23T23:21:57.609Z,48.55
2019-02-23T23:24:28.487Z,45.00
2019-02-23T23:27:00.467Z,48.64
2019-02-23T23:29:31.283Z,49.74
2019-02-23T23:32:02.317Z,50.56
2019-02-23T23:34:33.250Z,50.77
2019-02-23T23:37:04.151Z,51.95
2019-02-23T23:39:34.989Z,48.09
2019-02-23T23:42:05.875Z,49.54
2019-02-23T23:44:36.848Z,49.63
2019-02-23T23:47:07.664Z,52.02
2019-02-23T23:49:38.550Z,53.48
2019-02-23T23:52:09.434Z,54.48
2019-02-23T23:54:40.493Z,54.25
2019-02-23T23:57:11.314Z,53.10
2019-02-23T23:59:42.174Z,53.90
